sensor_id;sensor_type;location;lat;lon;timestamp;P1;durP1;ratioP1;P2;durP2;ratioP2
48963;SDS011;34776;48.180;16.420;2023-04-25T00:01:35;2.30;;;2.08;;
48963;SDS011;34776;48.180;16.420;2023-04-25T00:04:01;1.88;;;1.77;;
48963;SDS011;34776;48.180;16.420;2023-04-25T00:06:27;2.20;;;2.00;;
48963;SDS011;34776;48.180;16.420;2023-04-25T00:08:53;2.60;;;2.30;;
48963;SDS011;34776;48.180;16.420;2023-04-25T00:11:19;3.53;;;2.83;;
48963;SDS011;34776;48.180;16.420;2023-04-25T00:13:44;4.18;;;2.10;;
48963;SDS011;34776;48.180;16.420;2023-04-25T00:16:11;2.10;;;2.00;;
48963;SDS011;34776;48.180;16.420;2023-04-25T00:18:39;2.10;;;1.90;;
48963;SDS011;34776;48.180;16.420;2023-04-25T00:21:04;3.10;;;2.17;;
48963;SDS011;34776;48.180;16.420;2023-04-25T00:23:31;3.30;;;1.85;;
48963;SDS011;34776;48.180;16.420;2023-04-25T00:25:56;2.78;;;2.20;;
48963;SDS011;34776;48.180;16.420;2023-04-25T00:28:21;5.18;;;1.90;;
48963;SDS011;34776;48.180;16.420;2023-04-25T00:30:47;2.38;;;2.13;;
48963;SDS011;34776;48.180;16.420;2023-04-25T00:33:12;2.30;;;2.00;;
48963;SDS011;34776;48.180;16.420;2023-04-25T00:35:37;4.00;;;2.17;;
48963;SDS011;34776;48.180;16.420;2023-04-25T00:38:03;2.70;;;2.10;;
48963;SDS011;34776;48.180;16.420;2023-04-25T00:40:28;2.55;;;2.10;;
48963;SDS011;34776;48.180;16.420;2023-04-25T00:42:54;2.65;;;2.10;;
48963;SDS011;34776;48.180;16.420;2023-04-25T00:45:19;3.25;;;2.50;;
48963;SDS011;34776;48.180;16.420;2023-04-25T00:47:45;3.28;;;2.05;;
48963;SDS011;34776;48.180;16.420;2023-04-25T00:50:12;3.45;;;2.40;;
48963;SDS011;34776;48.180;16.420;2023-04-25T00:52:38;2.40;;;2.05;;
48963;SDS011;34776;48.180;16.420;2023-04-25T00:55:06;2.72;;;2.13;;
48963;SDS011;34776;48.180;16.420;2023-04-25T00:57:33;3.30;;;2.33;;
48963;SDS011;34776;48.180;16.420;2023-04-25T00:59:58;2.55;;;2.10;;
48963;SDS011;34776;48.180;16.420;2023-04-25T01:02:24;3.40;;;2.00;;
48963;SDS011;34776;48.180;16.420;2023-04-25T01:04:50;3.90;;;2.20;;
48963;SDS011;34776;48.180;16.420;2023-04-25T01:07:16;3.42;;;2.40;;
48963;SDS011;34776;48.180;16.420;2023-04-25T01:09:41;3.90;;;2.40;;
48963;SDS011;34776;48.180;16.420;2023-04-25T01:12:07;3.20;;;2.22;;
48963;SDS011;34776;48.180;16.420;2023-04-25T01:14:32;2.75;;;2.38;;
48963;SDS011;34776;48.180;16.420;2023-04-25T01:16:58;3.53;;;2.35;;
48963;SDS011;34776;48.180;16.420;2023-04-25T01:19:23;3.00;;;2.00;;
48963;SDS011;34776;48.180;16.420;2023-04-25T01:21:49;4.28;;;2.65;;
48963;SDS011;34776;48.180;16.420;2023-04-25T01:24:15;2.97;;;2.30;;
48963;SDS011;34776;48.180;16.420;2023-04-25T01:26:41;3.78;;;2.42;;
48963;SDS011;34776;48.180;16.420;2023-04-25T01:29:14;4.45;;;2.25;;
48963;SDS011;34776;48.180;16.420;2023-04-25T01:31:43;3.15;;;2.60;;
48963;SDS011;34776;48.180;16.420;2023-04-25T01:34:09;3.38;;;2.58;;
48963;SDS011;34776;48.180;16.420;2023-04-25T01:36:35;3.78;;;2.40;;
48963;SDS011;34776;48.180;16.420;2023-04-25T01:39:00;3.38;;;2.40;;
48963;SDS011;34776;48.180;16.420;2023-04-25T01:41:26;4.10;;;2.38;;
48963;SDS011;34776;48.180;16.420;2023-04-25T01:43:52;2.80;;;2.47;;
48963;SDS011;34776;48.180;16.420;2023-04-25T01:46:17;2.58;;;2.38;;
48963;SDS011;34776;48.180;16.420;2023-04-25T01:48:43;2.50;;;2.30;;
48963;SDS011;34776;48.180;16.420;2023-04-25T01:51:08;3.55;;;2.30;;
48963;SDS011;34776;48.180;16.420;2023-04-25T01:53:36;2.50;;;2.30;;
48963;SDS011;34776;48.180;16.420;2023-04-25T01:56:02;5.78;;;2.58;;
48963;SDS011;34776;48.180;16.420;2023-04-25T01:58:28;3.47;;;2.55;;
48963;SDS011;34776;48.180;16.420;2023-04-25T02:00:53;2.60;;;2.40;;
48963;SDS011;34776;48.180;16.420;2023-04-25T02:03:18;3.50;;;2.78;;
48963;SDS011;34776;48.180;16.420;2023-04-25T02:05:44;3.13;;;2.63;;
48963;SDS011;34776;48.180;16.420;2023-04-25T02:08:09;3.10;;;2.47;;
48963;SDS011;34776;48.180;16.420;2023-04-25T02:10:35;5.32;;;2.45;;
48963;SDS011;34776;48.180;16.420;2023-04-25T02:13:00;3.28;;;2.50;;
48963;SDS011;34776;48.180;16.420;2023-04-25T02:15:26;2.95;;;2.63;;
48963;SDS011;34776;48.180;16.420;2023-04-25T02:17:51;5.10;;;2.58;;
48963;SDS011;34776;48.180;16.420;2023-04-25T02:20:18;2.55;;;2.35;;
48963;SDS011;34776;48.180;16.420;2023-04-25T02:22:45;2.80;;;2.38;;
48963;SDS011;34776;48.180;16.420;2023-04-25T02:25:10;2.70;;;2.28;;
48963;SDS011;34776;48.180;16.420;2023-04-25T02:27:36;3.60;;;2.67;;
48963;SDS011;34776;48.180;16.420;2023-04-25T02:30:02;2.63;;;2.40;;
48963;SDS011;34776;48.180;16.420;2023-04-25T02:32:27;3.00;;;2.50;;
48963;SDS011;34776;48.180;16.420;2023-04-25T02:34:53;2.58;;;2.38;;
48963;SDS011;34776;48.180;16.420;2023-04-25T02:37:18;4.60;;;2.83;;
48963;SDS011;34776;48.180;16.420;2023-04-25T02:39:44;5.05;;;2.90;;
48963;SDS011;34776;48.180;16.420;2023-04-25T02:42:10;3.28;;;2.53;;
48963;SDS011;34776;48.180;16.420;2023-04-25T02:44:35;4.53;;;2.90;;
48963;SDS011;34776;48.180;16.420;2023-04-25T02:47:01;4.90;;;2.50;;
48963;SDS011;34776;48.180;16.420;2023-04-25T02:49:26;4.45;;;2.95;;
48963;SDS011;34776;48.180;16.420;2023-04-25T02:51:51;4.55;;;2.47;;
48963;SDS011;34776;48.180;16.420;2023-04-25T02:54:17;3.35;;;2.88;;
48963;SDS011;34776;48.180;16.420;2023-04-25T02:56:42;6.38;;;3.17;;
48963;SDS011;34776;48.180;16.420;2023-04-25T02:59:07;3.25;;;2.92;;
48963;SDS011;34776;48.180;16.420;2023-04-25T03:01:32;3.70;;;2.88;;
48963;SDS011;34776;48.180;16.420;2023-04-25T03:03:58;3.95;;;2.80;;
48963;SDS011;34776;48.180;16.420;2023-04-25T03:06:23;2.95;;;2.72;;
48963;SDS011;34776;48.180;16.420;2023-04-25T03:08:49;3.58;;;2.70;;
48963;SDS011;34776;48.180;16.420;2023-04-25T03:11:14;7.55;;;2.97;;
48963;SDS011;34776;48.180;16.420;2023-04-25T03:13:39;3.00;;;2.65;;
48963;SDS011;34776;48.180;16.420;2023-04-25T03:16:05;3.15;;;2.33;;
48963;SDS011;34776;48.180;16.420;2023-04-25T03:18:30;4.70;;;2.63;;
48963;SDS011;34776;48.180;16.420;2023-04-25T03:20:56;5.85;;;2.80;;
48963;SDS011;34776;48.180;16.420;2023-04-25T03:23:21;3.65;;;2.70;;
48963;SDS011;34776;48.180;16.420;2023-04-25T03:25:46;2.60;;;2.40;;
48963;SDS011;34776;48.180;16.420;2023-04-25T03:28:12;4.07;;;2.80;;
48963;SDS011;34776;48.180;16.420;2023-04-25T03:30:37;2.65;;;2.42;;
48963;SDS011;34776;48.180;16.420;2023-04-25T03:33:02;3.28;;;2.70;;
48963;SDS011;34776;48.180;16.420;2023-04-25T03:35:28;6.43;;;2.70;;
48963;SDS011;34776;48.180;16.420;2023-04-25T03:37:53;4.70;;;2.67;;
48963;SDS011;34776;48.180;16.420;2023-04-25T03:40:18;4.35;;;2.85;;
48963;SDS011;34776;48.180;16.420;2023-04-25T03:42:44;5.70;;;4.32;;
48963;SDS011;34776;48.180;16.420;2023-04-25T03:45:09;3.50;;;3.10;;
48963;SDS011;34776;48.180;16.420;2023-04-25T03:47:35;6.25;;;2.85;;
48963;SDS011;34776;48.180;16.420;2023-04-25T03:50:00;2.88;;;2.58;;
48963;SDS011;34776;48.180;16.420;2023-04-25T03:52:27;3.75;;;2.92;;
48963;SDS011;34776;48.180;16.420;2023-04-25T03:54:52;3.40;;;3.10;;
48963;SDS011;34776;48.180;16.420;2023-04-25T03:57:17;3.72;;;2.75;;
48963;SDS011;34776;48.180;16.420;2023-04-25T03:59:43;4.85;;;3.03;;
48963;SDS011;34776;48.180;16.420;2023-04-25T04:02:09;3.50;;;2.95;;
48963;SDS011;34776;48.180;16.420;2023-04-25T04:04:34;3.20;;;2.90;;
48963;SDS011;34776;48.180;16.420;2023-04-25T04:07:00;5.15;;;2.83;;
48963;SDS011;34776;48.180;16.420;2023-04-25T04:09:25;4.28;;;3.00;;
48963;SDS011;34776;48.180;16.420;2023-04-25T04:11:52;3.40;;;2.65;;
48963;SDS011;34776;48.180;16.420;2023-04-25T04:14:18;4.93;;;3.10;;
48963;SDS011;34776;48.180;16.420;2023-04-25T04:16:43;3.83;;;2.83;;
48963;SDS011;34776;48.180;16.420;2023-04-25T04:19:08;4.28;;;3.45;;
48963;SDS011;34776;48.180;16.420;2023-04-25T04:21:34;5.00;;;2.88;;
48963;SDS011;34776;48.180;16.420;2023-04-25T04:23:59;5.63;;;3.15;;
48963;SDS011;34776;48.180;16.420;2023-04-25T04:26:25;3.60;;;3.13;;
48963;SDS011;34776;48.180;16.420;2023-04-25T04:28:51;5.18;;;4.05;;
48963;SDS011;34776;48.180;16.420;2023-04-25T04:31:16;8.77;;;6.35;;
48963;SDS011;34776;48.180;16.420;2023-04-25T04:33:44;4.97;;;3.22;;
48963;SDS011;34776;48.180;16.420;2023-04-25T04:36:11;4.65;;;3.30;;
48963;SDS011;34776;48.180;16.420;2023-04-25T04:38:36;5.35;;;4.00;;
48963;SDS011;34776;48.180;16.420;2023-04-25T04:41:02;8.15;;;3.38;;
48963;SDS011;34776;48.180;16.420;2023-04-25T04:43:28;4.97;;;3.17;;
48963;SDS011;34776;48.180;16.420;2023-04-25T04:45:54;3.67;;;2.75;;
48963;SDS011;34776;48.180;16.420;2023-04-25T04:48:23;2.92;;;2.65;;
48963;SDS011;34776;48.180;16.420;2023-04-25T04:50:48;4.22;;;3.42;;
48963;SDS011;34776;48.180;16.420;2023-04-25T04:53:14;9.23;;;7.63;;
48963;SDS011;34776;48.180;16.420;2023-04-25T04:55:39;4.20;;;3.70;;
48963;SDS011;34776;48.180;16.420;2023-04-25T04:58:06;3.35;;;3.05;;
48963;SDS011;34776;48.180;16.420;2023-04-25T05:00:32;3.88;;;3.08;;
48963;SDS011;34776;48.180;16.420;2023-04-25T05:02:58;3.65;;;3.13;;
48963;SDS011;34776;48.180;16.420;2023-04-25T05:05:23;4.80;;;3.30;;
48963;SDS011;34776;48.180;16.420;2023-04-25T05:07:49;5.82;;;3.50;;
48963;SDS011;34776;48.180;16.420;2023-04-25T05:10:14;3.85;;;3.33;;
48963;SDS011;34776;48.180;16.420;2023-04-25T05:12:40;5.82;;;4.10;;
48963;SDS011;34776;48.180;16.420;2023-04-25T05:15:05;3.88;;;3.47;;
48963;SDS011;34776;48.180;16.420;2023-04-25T05:17:31;3.90;;;3.42;;
48963;SDS011;34776;48.180;16.420;2023-04-25T05:19:57;4.63;;;3.70;;
48963;SDS011;34776;48.180;16.420;2023-04-25T05:22:23;5.95;;;3.70;;
48963;SDS011;34776;48.180;16.420;2023-04-25T05:24:48;4.07;;;3.25;;
48963;SDS011;34776;48.180;16.420;2023-04-25T05:27:16;3.90;;;3.50;;
48963;SDS011;34776;48.180;16.420;2023-04-25T05:29:41;6.47;;;3.47;;
48963;SDS011;34776;48.180;16.420;2023-04-25T05:32:07;5.47;;;3.72;;
48963;SDS011;34776;48.180;16.420;2023-04-25T05:34:33;6.07;;;3.92;;
48963;SDS011;34776;48.180;16.420;2023-04-25T05:36:58;5.78;;;3.88;;
48963;SDS011;34776;48.180;16.420;2023-04-25T05:39:24;5.35;;;3.80;;
48963;SDS011;34776;48.180;16.420;2023-04-25T05:41:49;6.15;;;3.75;;
48963;SDS011;34776;48.180;16.420;2023-04-25T05:44:14;5.00;;;3.65;;
48963;SDS011;34776;48.180;16.420;2023-04-25T05:46:40;4.80;;;3.30;;
48963;SDS011;34776;48.180;16.420;2023-04-25T05:49:06;4.18;;;3.67;;
48963;SDS011;34776;48.180;16.420;2023-04-25T05:51:31;5.53;;;3.75;;
48963;SDS011;34776;48.180;16.420;2023-04-25T05:53:57;6.70;;;4.43;;
48963;SDS011;34776;48.180;16.420;2023-04-25T05:56:22;5.32;;;4.18;;
48963;SDS011;34776;48.180;16.420;2023-04-25T05:58:48;5.07;;;3.65;;
48963;SDS011;34776;48.180;16.420;2023-04-25T06:01:13;7.28;;;3.47;;
48963;SDS011;34776;48.180;16.420;2023-04-25T06:03:39;8.43;;;3.80;;
48963;SDS011;34776;48.180;16.420;2023-04-25T06:06:07;6.22;;;3.65;;
48963;SDS011;34776;48.180;16.420;2023-04-25T06:08:33;5.75;;;3.45;;
48963;SDS011;34776;48.180;16.420;2023-04-25T06:10:58;10.13;;;3.72;;
48963;SDS011;34776;48.180;16.420;2023-04-25T06:13:23;4.72;;;3.53;;
48963;SDS011;34776;48.180;16.420;2023-04-25T06:15:49;5.22;;;3.60;;
48963;SDS011;34776;48.180;16.420;2023-04-25T06:18:14;5.68;;;3.75;;
48963;SDS011;34776;48.180;16.420;2023-04-25T06:20:40;5.82;;;3.60;;
48963;SDS011;34776;48.180;16.420;2023-04-25T06:23:05;7.15;;;3.85;;
48963;SDS011;34776;48.180;16.420;2023-04-25T06:25:30;7.13;;;3.95;;
48963;SDS011;34776;48.180;16.420;2023-04-25T06:27:56;6.03;;;3.20;;
48963;SDS011;34776;48.180;16.420;2023-04-25T06:30:21;6.03;;;3.50;;
48963;SDS011;34776;48.180;16.420;2023-04-25T06:32:50;5.07;;;3.03;;
48963;SDS011;34776;48.180;16.420;2023-04-25T06:35:16;8.30;;;3.28;;
48963;SDS011;34776;48.180;16.420;2023-04-25T06:37:41;4.47;;;2.65;;
48963;SDS011;34776;48.180;16.420;2023-04-25T06:40:06;4.07;;;2.70;;
48963;SDS011;34776;48.180;16.420;2023-04-25T06:42:32;4.82;;;2.97;;
48963;SDS011;34776;48.180;16.420;2023-04-25T06:44:58;3.75;;;2.78;;
48963;SDS011;34776;48.180;16.420;2023-04-25T06:47:24;3.55;;;2.83;;
48963;SDS011;34776;48.180;16.420;2023-04-25T06:49:49;3.03;;;2.55;;
48963;SDS011;34776;48.180;16.420;2023-04-25T06:52:14;6.45;;;2.45;;
48963;SDS011;34776;48.180;16.420;2023-04-25T06:54:40;7.47;;;2.83;;
48963;SDS011;34776;48.180;16.420;2023-04-25T06:57:05;9.45;;;3.05;;
48963;SDS011;34776;48.180;16.420;2023-04-25T06:59:31;7.43;;;2.40;;
48963;SDS011;34776;48.180;16.420;2023-04-25T07:01:57;3.40;;;2.20;;
48963;SDS011;34776;48.180;16.420;2023-04-25T07:04:23;3.20;;;2.42;;
48963;SDS011;34776;48.180;16.420;2023-04-25T07:06:48;2.92;;;2.00;;
48963;SDS011;34776;48.180;16.420;2023-04-25T07:09:14;5.57;;;2.10;;
48963;SDS011;34776;48.180;16.420;2023-04-25T07:11:39;5.18;;;2.25;;
48963;SDS011;34776;48.180;16.420;2023-04-25T07:14:05;3.03;;;2.10;;
48963;SDS011;34776;48.180;16.420;2023-04-25T07:16:31;3.05;;;2.08;;
48963;SDS011;34776;48.180;16.420;2023-04-25T07:18:56;3.63;;;2.00;;
48963;SDS011;34776;48.180;16.420;2023-04-25T07:21:21;2.63;;;2.00;;
48963;SDS011;34776;48.180;16.420;2023-04-25T07:23:47;2.80;;;2.00;;
48963;SDS011;34776;48.180;16.420;2023-04-25T07:26:12;3.42;;;1.98;;
48963;SDS011;34776;48.180;16.420;2023-04-25T07:28:38;3.28;;;2.10;;
48963;SDS011;34776;48.180;16.420;2023-04-25T07:31:03;5.53;;;2.30;;
48963;SDS011;34776;48.180;16.420;2023-04-25T07:33:30;3.72;;;1.95;;
48963;SDS011;34776;48.180;16.420;2023-04-25T07:35:55;3.72;;;2.17;;
48963;SDS011;34776;48.180;16.420;2023-04-25T07:38:21;9.50;;;2.08;;
48963;SDS011;34776;48.180;16.420;2023-04-25T07:40:50;5.82;;;2.03;;
48963;SDS011;34776;48.180;16.420;2023-04-25T07:43:15;3.42;;;1.95;;
48963;SDS011;34776;48.180;16.420;2023-04-25T07:45:45;3.33;;;2.10;;
48963;SDS011;34776;48.180;16.420;2023-04-25T07:48:11;9.32;;;2.38;;
48963;SDS011;34776;48.180;16.420;2023-04-25T07:50:41;7.53;;;2.80;;
48963;SDS011;34776;48.180;16.420;2023-04-25T07:53:06;5.95;;;2.22;;
48963;SDS011;34776;48.180;16.420;2023-04-25T07:55:31;7.07;;;2.83;;
48963;SDS011;34776;48.180;16.420;2023-04-25T07:57:57;8.55;;;3.00;;
48963;SDS011;34776;48.180;16.420;2023-04-25T08:00:22;3.67;;;1.95;;
48963;SDS011;34776;48.180;16.420;2023-04-25T08:02:48;7.05;;;2.25;;
48963;SDS011;34776;48.180;16.420;2023-04-25T08:05:13;6.03;;;2.22;;
48963;SDS011;34776;48.180;16.420;2023-04-25T08:07:40;4.28;;;1.70;;
48963;SDS011;34776;48.180;16.420;2023-04-25T08:10:06;3.00;;;2.20;;
48963;SDS011;34776;48.180;16.420;2023-04-25T08:12:32;7.63;;;1.88;;
48963;SDS011;34776;48.180;16.420;2023-04-25T08:14:58;14.15;;;2.50;;
48963;SDS011;34776;48.180;16.420;2023-04-25T08:17:23;2.63;;;2.20;;
48963;SDS011;34776;48.180;16.420;2023-04-25T08:19:50;5.50;;;1.98;;
48963;SDS011;34776;48.180;16.420;2023-04-25T08:22:15;2.45;;;2.03;;
48963;SDS011;34776;48.180;16.420;2023-04-25T08:24:41;2.72;;;1.90;;
48963;SDS011;34776;48.180;16.420;2023-04-25T08:27:07;4.53;;;2.35;;
48963;SDS011;34776;48.180;16.420;2023-04-25T08:29:32;5.80;;;1.65;;
48963;SDS011;34776;48.180;16.420;2023-04-25T08:31:58;2.40;;;1.98;;
48963;SDS011;34776;48.180;16.420;2023-04-25T08:34:24;4.88;;;2.45;;
48963;SDS011;34776;48.180;16.420;2023-04-25T08:36:50;3.58;;;2.38;;
48963;SDS011;34776;48.180;16.420;2023-04-25T08:39:15;4.18;;;2.28;;
48963;SDS011;34776;48.180;16.420;2023-04-25T08:41:41;3.00;;;1.80;;
48963;SDS011;34776;48.180;16.420;2023-04-25T08:44:06;4.15;;;1.83;;
48963;SDS011;34776;48.180;16.420;2023-04-25T08:46:35;4.82;;;2.20;;
48963;SDS011;34776;48.180;16.420;2023-04-25T08:49:03;9.68;;;2.38;;
48963;SDS011;34776;48.180;16.420;2023-04-25T08:51:31;5.70;;;2.17;;
48963;SDS011;34776;48.180;16.420;2023-04-25T08:53:57;4.88;;;2.17;;
48963;SDS011;34776;48.180;16.420;2023-04-25T08:56:37;4.43;;;1.85;;
48963;SDS011;34776;48.180;16.420;2023-04-25T08:59:05;5.00;;;1.80;;
48963;SDS011;34776;48.180;16.420;2023-04-25T09:01:33;15.98;;;3.03;;
48963;SDS011;34776;48.180;16.420;2023-04-25T09:04:01;2.95;;;1.40;;
48963;SDS011;34776;48.180;16.420;2023-04-25T09:06:28;9.85;;;2.20;;
48963;SDS011;34776;48.180;16.420;2023-04-25T09:09:00;3.92;;;1.83;;
48963;SDS011;34776;48.180;16.420;2023-04-25T09:11:27;7.57;;;2.08;;
48963;SDS011;34776;48.180;16.420;2023-04-25T09:14:09;3.38;;;2.08;;
48963;SDS011;34776;48.180;16.420;2023-04-25T09:21:57;8.65;;;2.45;;
48963;SDS011;34776;48.180;16.420;2023-04-25T09:24:30;2.92;;;2.10;;
48963;SDS011;34776;48.180;16.420;2023-04-25T09:26:57;15.10;;;2.50;;
48963;SDS011;34776;48.180;16.420;2023-04-25T09:29:33;11.95;;;2.95;;
48963;SDS011;34776;48.180;16.420;2023-04-25T09:34:49;5.80;;;2.65;;
48963;SDS011;34776;48.180;16.420;2023-04-25T09:37:25;3.38;;;2.38;;
48963;SDS011;34776;48.180;16.420;2023-04-25T09:39:55;3.10;;;2.60;;
48963;SDS011;34776;48.180;16.420;2023-04-25T09:42:24;4.80;;;2.88;;
48963;SDS011;34776;48.180;16.420;2023-04-25T09:44:52;6.65;;;2.63;;
48963;SDS011;34776;48.180;16.420;2023-04-25T09:47:29;3.05;;;2.60;;
48963;SDS011;34776;48.180;16.420;2023-04-25T09:49:54;5.65;;;3.17;;
48963;SDS011;34776;48.180;16.420;2023-04-25T09:52:21;4.00;;;2.83;;
48963;SDS011;34776;48.180;16.420;2023-04-25T09:54:48;5.72;;;2.60;;
48963;SDS011;34776;48.180;16.420;2023-04-25T09:57:16;4.03;;;2.80;;
48963;SDS011;34776;48.180;16.420;2023-04-25T10:05:49;6.53;;;2.10;;
48963;SDS011;34776;48.180;16.420;2023-04-25T10:08:17;1.92;;;1.70;;
48963;SDS011;34776;48.180;16.420;2023-04-25T10:10:43;4.70;;;2.00;;
48963;SDS011;34776;48.180;16.420;2023-04-25T10:13:09;2.92;;;2.10;;
48963;SDS011;34776;48.180;16.420;2023-04-25T10:38:47;1.55;;;1.25;;
48963;SDS011;34776;48.180;16.420;2023-04-25T10:46:28;1.83;;;1.50;;
48963;SDS011;34776;48.180;16.420;2023-04-25T10:59:15;1.98;;;1.50;;
48963;SDS011;34776;48.180;16.420;2023-04-25T11:01:43;4.70;;;1.40;;
48963;SDS011;34776;48.180;16.420;2023-04-25T11:04:19;2.63;;;1.48;;
48963;SDS011;34776;48.180;16.420;2023-04-25T11:12:04;6.75;;;2.00;;
48963;SDS011;34776;48.180;16.420;2023-04-25T11:14:30;2.70;;;2.00;;
48963;SDS011;34776;48.180;16.420;2023-04-25T11:16:55;2.33;;;1.60;;
48963;SDS011;34776;48.180;16.420;2023-04-25T11:21:55;2.83;;;1.90;;
48963;SDS011;34776;48.180;16.420;2023-04-25T11:29:31;3.20;;;2.15;;
48963;SDS011;34776;48.180;16.420;2023-04-25T11:31:58;6.07;;;1.90;;
48963;SDS011;34776;48.180;16.420;2023-04-25T11:34:24;3.63;;;1.70;;
48963;SDS011;34776;48.180;16.420;2023-04-25T11:36:50;18.35;;;2.70;;
48963;SDS011;34776;48.180;16.420;2023-04-25T11:39:17;26.25;;;2.75;;
48963;SDS011;34776;48.180;16.420;2023-04-25T11:41:43;4.72;;;1.85;;
48963;SDS011;34776;48.180;16.420;2023-04-25T11:44:09;7.32;;;2.20;;
48963;SDS011;34776;48.180;16.420;2023-04-25T11:46:34;6.28;;;2.20;;
48963;SDS011;34776;48.180;16.420;2023-04-25T11:49:00;3.90;;;1.90;;
48963;SDS011;34776;48.180;16.420;2023-04-25T11:51:25;4.50;;;2.22;;
48963;SDS011;34776;48.180;16.420;2023-04-25T11:53:51;2.85;;;1.88;;
48963;SDS011;34776;48.180;16.420;2023-04-25T11:56:16;1.73;;;1.45;;
48963;SDS011;34776;48.180;16.420;2023-04-25T11:58:55;4.90;;;2.00;;
48963;SDS011;34776;48.180;16.420;2023-04-25T12:01:26;4.05;;;1.80;;
48963;SDS011;34776;48.180;16.420;2023-04-25T12:03:52;2.33;;;1.60;;
48963;SDS011;34776;48.180;16.420;2023-04-25T12:06:18;4.00;;;2.00;;
48963;SDS011;34776;48.180;16.420;2023-04-25T12:11:49;3.38;;;1.95;;
48963;SDS011;34776;48.180;16.420;2023-04-25T12:16:55;2.35;;;1.98;;
48963;SDS011;34776;48.180;16.420;2023-04-25T12:19:22;2.08;;;1.83;;
48963;SDS011;34776;48.180;16.420;2023-04-25T12:21:48;1.65;;;1.55;;
48963;SDS011;34776;48.180;16.420;2023-04-25T12:29:22;2.60;;;2.20;;
48963;SDS011;34776;48.180;16.420;2023-04-25T12:31:49;3.92;;;1.92;;
48963;SDS011;34776;48.180;16.420;2023-04-25T12:34:16;2.90;;;2.00;;
48963;SDS011;34776;48.180;16.420;2023-04-25T12:39:21;1.33;;;1.23;;
48963;SDS011;34776;48.180;16.420;2023-04-25T12:41:48;1.88;;;1.52;;
48963;SDS011;34776;48.180;16.420;2023-04-25T12:44:15;4.45;;;1.50;;
48963;SDS011;34776;48.180;16.420;2023-04-25T12:51:51;11.57;;;2.30;;
48963;SDS011;34776;48.180;16.420;2023-04-25T12:56:51;2.23;;;1.67;;
48963;SDS011;34776;48.180;16.420;2023-04-25T13:17:23;4.13;;;1.73;;
48963;SDS011;34776;48.180;16.420;2023-04-25T13:32:45;2.78;;;2.05;;
48963;SDS011;34776;48.180;16.420;2023-04-25T13:35:11;1.75;;;1.65;;
48963;SDS011;34776;48.180;16.420;2023-04-25T13:40:40;2.25;;;1.30;;
48963;SDS011;34776;48.180;16.420;2023-04-25T13:50:51;8.32;;;1.60;;
48963;SDS011;34776;48.180;16.420;2023-04-25T14:03:37;3.70;;;1.75;;
48963;SDS011;34776;48.180;16.420;2023-04-25T14:08:38;2.15;;;1.70;;
48963;SDS011;34776;48.180;16.420;2023-04-25T14:11:04;13.93;;;2.67;;
48963;SDS011;34776;48.180;16.420;2023-04-25T14:13:29;3.53;;;1.92;;
48963;SDS011;34776;48.180;16.420;2023-04-25T14:15:55;3.58;;;1.60;;
48963;SDS011;34776;48.180;16.420;2023-04-25T14:18:20;6.55;;;1.58;;
48963;SDS011;34776;48.180;16.420;2023-04-25T14:20:46;3.22;;;1.25;;
48963;SDS011;34776;48.180;16.420;2023-04-25T14:23:12;3.17;;;1.40;;
48963;SDS011;34776;48.180;16.420;2023-04-25T14:25:37;2.30;;;1.25;;
48963;SDS011;34776;48.180;16.420;2023-04-25T14:28:03;1.77;;;1.10;;
48963;SDS011;34776;48.180;16.420;2023-04-25T14:30:28;1.30;;;1.17;;
48963;SDS011;34776;48.180;16.420;2023-04-25T14:32:54;3.40;;;1.10;;
48963;SDS011;34776;48.180;16.420;2023-04-25T14:35:19;4.55;;;1.10;;
48963;SDS011;34776;48.180;16.420;2023-04-25T14:37:44;5.78;;;1.45;;
48963;SDS011;34776;48.180;16.420;2023-04-25T14:40:10;1.77;;;1.20;;
48963;SDS011;34776;48.180;16.420;2023-04-25T14:42:38;1.60;;;1.23;;
48963;SDS011;34776;48.180;16.420;2023-04-25T14:45:04;1.50;;;1.40;;
48963;SDS011;34776;48.180;16.420;2023-04-25T14:47:31;2.75;;;1.60;;
48963;SDS011;34776;48.180;16.420;2023-04-25T14:49:57;3.65;;;1.48;;
48963;SDS011;34776;48.180;16.420;2023-04-25T14:52:22;2.80;;;1.52;;
48963;SDS011;34776;48.180;16.420;2023-04-25T14:54:48;2.22;;;1.15;;
48963;SDS011;34776;48.180;16.420;2023-04-25T14:57:13;2.35;;;1.48;;
48963;SDS011;34776;48.180;16.420;2023-04-25T14:59:39;2.05;;;1.27;;
48963;SDS011;34776;48.180;16.420;2023-04-25T15:02:05;2.05;;;1.20;;
48963;SDS011;34776;48.180;16.420;2023-04-25T15:04:31;4.78;;;1.92;;
48963;SDS011;34776;48.180;16.420;2023-04-25T15:06:56;8.98;;;1.70;;
48963;SDS011;34776;48.180;16.420;2023-04-25T15:09:22;16.98;;;2.30;;
48963;SDS011;34776;48.180;16.420;2023-04-25T15:11:49;7.53;;;2.05;;
48963;SDS011;34776;48.180;16.420;2023-04-25T15:14:16;4.97;;;1.77;;
48963;SDS011;34776;48.180;16.420;2023-04-25T15:16:42;4.28;;;2.38;;
48963;SDS011;34776;48.180;16.420;2023-04-25T15:19:07;4.07;;;2.25;;
48963;SDS011;34776;48.180;16.420;2023-04-25T15:21:33;2.28;;;1.40;;
48963;SDS011;34776;48.180;16.420;2023-04-25T15:23:58;4.75;;;2.05;;
48963;SDS011;34776;48.180;16.420;2023-04-25T15:26:23;4.40;;;2.00;;
48963;SDS011;34776;48.180;16.420;2023-04-25T15:28:49;4.38;;;1.73;;
48963;SDS011;34776;48.180;16.420;2023-04-25T15:31:14;3.03;;;1.88;;
48963;SDS011;34776;48.180;16.420;2023-04-25T15:33:39;4.97;;;2.40;;
48963;SDS011;34776;48.180;16.420;2023-04-25T15:36:05;2.97;;;1.83;;
48963;SDS011;34776;48.180;16.420;2023-04-25T15:38:31;8.25;;;1.60;;
48963;SDS011;34776;48.180;16.420;2023-04-25T15:40:57;4.88;;;1.63;;
48963;SDS011;34776;48.180;16.420;2023-04-25T15:43:22;3.55;;;1.35;;
48963;SDS011;34776;48.180;16.420;2023-04-25T15:45:48;3.15;;;1.30;;
48963;SDS011;34776;48.180;16.420;2023-04-25T15:48:13;2.35;;;1.20;;
48963;SDS011;34776;48.180;16.420;2023-04-25T15:50:38;12.80;;;1.80;;
48963;SDS011;34776;48.180;16.420;2023-04-25T15:53:05;1.60;;;1.17;;
48963;SDS011;34776;48.180;16.420;2023-04-25T15:55:31;3.17;;;1.30;;
48963;SDS011;34776;48.180;16.420;2023-04-25T15:57:56;1.92;;;1.17;;
48963;SDS011;34776;48.180;16.420;2023-04-25T16:00:21;2.00;;;1.35;;
48963;SDS011;34776;48.180;16.420;2023-04-25T16:02:48;4.80;;;1.30;;
48963;SDS011;34776;48.180;16.420;2023-04-25T16:05:13;3.20;;;1.50;;
48963;SDS011;34776;48.180;16.420;2023-04-25T16:07:39;2.53;;;1.17;;
48963;SDS011;34776;48.180;16.420;2023-04-25T16:10:06;3.58;;;1.33;;
48963;SDS011;34776;48.180;16.420;2023-04-25T16:12:32;2.67;;;1.00;;
48963;SDS011;34776;48.180;16.420;2023-04-25T16:14:57;2.78;;;1.10;;
48963;SDS011;34776;48.180;16.420;2023-04-25T16:17:25;1.60;;;1.50;;
48963;SDS011;34776;48.180;16.420;2023-04-25T16:19:54;1.88;;;1.40;;
48963;SDS011;34776;48.180;16.420;2023-04-25T16:22:20;1.35;;;1.25;;
48963;SDS011;34776;48.180;16.420;2023-04-25T16:24:46;1.85;;;1.73;;
48963;SDS011;34776;48.180;16.420;2023-04-25T16:27:12;1.70;;;1.50;;
48963;SDS011;34776;48.180;16.420;2023-04-25T16:29:37;1.75;;;1.25;;
48963;SDS011;34776;48.180;16.420;2023-04-25T16:32:03;1.40;;;1.30;;
48963;SDS011;34776;48.180;16.420;2023-04-25T16:34:29;2.63;;;1.25;;
48963;SDS011;34776;48.180;16.420;2023-04-25T16:36:55;2.50;;;1.20;;
48963;SDS011;34776;48.180;16.420;2023-04-25T16:39:20;1.30;;;1.20;;
48963;SDS011;34776;48.180;16.420;2023-04-25T16:41:46;1.85;;;1.40;;
48963;SDS011;34776;48.180;16.420;2023-04-25T16:44:12;1.63;;;1.48;;
48963;SDS011;34776;48.180;16.420;2023-04-25T16:46:37;3.05;;;1.50;;
48963;SDS011;34776;48.180;16.420;2023-04-25T16:49:03;1.20;;;1.10;;